sensor_id;sensor_type;location;lat;lon;timestamp;pressure;altitude;pressure_sealevel;temperature;humidity
41102;BME280;26845;50.190;19.178;2023-10-13T00:02:00;98736.15;;;15.48;98.70
41102;BME280;26845;50.190;19.178;2023-10-13T00:05:06;98727.63;;;15.47;98.68
41102;BME280;26845;50.190;19.178;2023-10-13T00:08:12;98719.61;;;15.44;98.66
41102;BME280;26845;50.190;19.178;2023-10-13T00:11:18;98715.54;;;15.47;98.97
41102;BME280;26845;50.190;19.178;2023-10-13T00:14:24;98710.25;;;15.49;98.71
41102;BME280;26845;50.190;19.178;2023-10-13T00:17:30;98710.23;;;15.43;98.56
41102;BME280;26845;50.190;19.178;2023-10-13T00:20:36;98706.94;;;15.38;98.45
41102;BME280;26845;50.190;19.178;2023-10-13T00:23:44;98705.35;;;15.36;98.32
41102;BME280;26845;50.190;19.178;2023-10-13T00:26:47;98706.90;;;15.32;98.26
41102;BME280;26845;50.190;19.178;2023-10-13T00:29:54;98703.15;;;15.29;98.34
41102;BME280;26845;50.190;19.178;2023-10-13T00:33:08;98702.37;;;15.27;98.33
41102;BME280;26845;50.190;19.178;2023-10-13T00:36:14;98699.98;;;15.26;98.09
41102;BME280;26845;50.190;19.178;2023-10-13T00:39:20;98700.77;;;15.20;97.85
41102;BME280;26845;50.190;19.178;2023-10-13T00:42:26;98707.00;;;15.13;97.66
41102;BME280;26845;50.190;19.178;2023-10-13T00:45:38;98706.58;;;15.05;97.62
41102;BME280;26845;50.190;19.178;2023-10-13T00:48:44;98702.63;;;14.99;97.62
41102;BME280;26845;50.190;19.178;2023-10-13T00:51:50;98695.15;;;14.93;97.42
41102;BME280;26845;50.190;19.178;2023-10-13T00:54:55;98690.98;;;14.88;97.30
41102;BME280;26845;50.190;19.178;2023-10-13T00:58:01;98687.39;;;14.83;97.26
41102;BME280;26845;50.190;19.178;2023-10-13T01:01:07;98688.45;;;14.76;97.06
41102;BME280;26845;50.190;19.178;2023-10-13T01:04:16;98686.06;;;14.70;97.13
41102;BME280;26845;50.190;19.178;2023-10-13T01:07:21;98688.55;;;14.63;96.95
41102;BME280;26845;50.190;19.178;2023-10-13T01:10:27;98688.80;;;14.57;96.88
41102;BME280;26845;50.190;19.178;2023-10-13T01:13:34;98690.29;;;14.48;96.96
41102;BME280;26845;50.190;19.178;2023-10-13T01:16:39;98690.55;;;14.41;96.94
41102;BME280;26845;50.190;19.178;2023-10-13T01:19:44;98691.30;;;14.33;96.90
41102;BME280;26845;50.190;19.178;2023-10-13T01:22:51;98691.55;;;14.27;97.01
41102;BME280;26845;50.190;19.178;2023-10-13T01:25:56;98691.22;;;14.24;96.99
41102;BME280;26845;50.190;19.178;2023-10-13T01:29:02;98686.80;;;14.24;97.00
41102;BME280;26845;50.190;19.178;2023-10-13T01:32:08;98686.40;;;14.24;97.10
41102;BME280;26845;50.190;19.178;2023-10-13T01:35:14;98680.58;;;14.26;97.36
41102;BME280;26845;50.190;19.178;2023-10-13T01:38:29;98680.08;;;14.28;97.06
41102;BME280;26845;50.190;19.178;2023-10-13T01:41:38;98677.75;;;14.23;96.83
41102;BME280;26845;50.190;19.178;2023-10-13T01:44:44;98674.98;;;14.20;96.75
41102;BME280;26845;50.190;19.178;2023-10-13T01:47:52;98677.28;;;14.16;96.69
41102;BME280;26845;50.190;19.178;2023-10-13T01:50:58;98677.65;;;14.09;96.25
41102;BME280;26845;50.190;19.178;2023-10-13T01:54:04;98670.71;;;14.07;96.85
41102;BME280;26845;50.190;19.178;2023-10-13T01:57:13;98667.40;;;14.06;96.78
41102;BME280;26845;50.190;19.178;2023-10-13T02:00:19;98671.34;;;14.05;96.81
41102;BME280;26845;50.190;19.178;2023-10-13T02:03:25;98671.13;;;14.01;96.57
41102;BME280;26845;50.190;19.178;2023-10-13T02:06:34;98673.63;;;13.97;96.73
41102;BME280;26845;50.190;19.178;2023-10-13T02:09:39;98679.41;;;13.89;96.33
41102;BME280;26845;50.190;19.178;2023-10-13T02:12:45;98679.10;;;13.75;96.27
41102;BME280;26845;50.190;19.178;2023-10-13T02:15:54;98680.46;;;13.63;96.25
41102;BME280;26845;50.190;19.178;2023-10-13T02:18:59;98678.91;;;13.56;96.52
41102;BME280;26845;50.190;19.178;2023-10-13T02:22:05;98677.96;;;13.52;96.86
41102;BME280;26845;50.190;19.178;2023-10-13T02:25:15;98679.28;;;13.51;97.14
41102;BME280;26845;50.190;19.178;2023-10-13T02:28:28;98675.69;;;13.43;96.95
41102;BME280;26845;50.190;19.178;2023-10-13T02:31:35;98678.46;;;13.36;97.22
41102;BME280;26845;50.190;19.178;2023-10-13T02:34:40;98676.83;;;13.31;97.10
41102;BME280;26845;50.190;19.178;2023-10-13T02:37:46;98680.59;;;13.25;97.22
41102;BME280;26845;50.190;19.178;2023-10-13T02:40:52;98681.55;;;13.23;97.46
41102;BME280;26845;50.190;19.178;2023-10-13T02:43:58;98679.92;;;13.23;98.04
41102;BME280;26845;50.190;19.178;2023-10-13T02:46:48;98682.33;;;13.27;98.25
41102;BME280;26845;50.190;19.178;2023-10-13T02:49:54;98681.91;;;13.26;98.08
41102;BME280;26845;50.190;19.178;2023-10-13T02:53:00;98681.02;;;13.32;98.46
41102;BME280;26845;50.190;19.178;2023-10-13T02:56:05;98681.68;;;13.33;98.06
41102;BME280;26845;50.190;19.178;2023-10-13T02:59:11;98674.37;;;13.34;98.16
41102;BME280;26845;50.190;19.178;2023-10-13T03:02:20;98680.77;;;13.36;98.20
41102;BME280;26845;50.190;19.178;2023-10-13T03:05:34;98683.84;;;13.37;98.19
41102;BME280;26845;50.190;19.178;2023-10-13T03:08:37;98683.35;;;13.37;98.23
41102;BME280;26845;50.190;19.178;2023-10-13T03:11:44;98689.79;;;13.38;98.27
41102;BME280;26845;50.190;19.178;2023-10-13T03:14:49;98694.31;;;13.38;98.34
41102;BME280;26845;50.190;19.178;2023-10-13T03:17:58;98694.10;;;13.34;98.60
41102;BME280;26845;50.190;19.178;2023-10-13T03:21:04;98695.23;;;13.34;98.57
41102;BME280;26845;50.190;19.178;2023-10-13T03:24:16;98701.27;;;13.32;98.71
41102;BME280;26845;50.190;19.178;2023-10-13T03:27:22;98697.49;;;13.33;99.05
41102;BME280;26845;50.190;19.178;2023-10-13T03:30:34;98693.94;;;13.34;99.14
41102;BME280;26845;50.190;19.178;2023-10-13T03:33:40;98687.37;;;13.41;99.71
41102;BME280;26845;50.190;19.178;2023-10-13T03:36:45;98684.64;;;13.42;99.41
41102;BME280;26845;50.190;19.178;2023-10-13T03:39:51;98684.01;;;13.45;99.45
41102;BME280;26845;50.190;19.178;2023-10-13T03:43:06;98684.88;;;13.45;99.14
41102;BME280;26845;50.190;19.178;2023-10-13T03:46:12;98680.85;;;13.44;99.05
41102;BME280;26845;50.190;19.178;2023-10-13T03:49:18;98678.36;;;13.46;98.99
41102;BME280;26845;50.190;19.178;2023-10-13T03:52:24;98682.52;;;13.44;98.66
41102;BME280;26845;50.190;19.178;2023-10-13T03:55:29;98679.25;;;13.42;98.90
41102;BME280;26845;50.190;19.178;2023-10-13T03:58:38;98678.04;;;13.37;98.59
41102;BME280;26845;50.190;19.178;2023-10-13T04:01:44;98675.58;;;13.37;99.12
41102;BME280;26845;50.190;19.178;2023-10-13T04:04:49;98672.19;;;13.37;98.79
41102;BME280;26845;50.190;19.178;2023-10-13T04:08:01;98674.05;;;13.35;98.81
41102;BME280;26845;50.190;19.178;2023-10-13T04:11:10;98674.06;;;13.36;98.99
41102;BME280;26845;50.190;19.178;2023-10-13T04:14:14;98678.73;;;13.35;98.85
41102;BME280;26845;50.190;19.178;2023-10-13T04:17:26;98673.64;;;13.37;98.98
41102;BME280;26845;50.190;19.178;2023-10-13T04:20:32;98680.88;;;13.39;98.87
41102;BME280;26845;50.190;19.178;2023-10-13T04:23:37;98676.74;;;13.39;98.81
41102;BME280;26845;50.190;19.178;2023-10-13T04:26:42;98671.52;;;13.38;99.01
41102;BME280;26845;50.190;19.178;2023-10-13T04:29:57;98669.64;;;13.41;99.22
41102;BME280;26845;50.190;19.178;2023-10-13T04:33:12;98668.31;;;13.46;99.34
41102;BME280;26845;50.190;19.178;2023-10-13T04:36:21;98669.30;;;13.46;99.04
41102;BME280;26845;50.190;19.178;2023-10-13T04:39:26;98679.21;;;13.47;98.90
41102;BME280;26845;50.190;19.178;2023-10-13T04:42:32;98677.89;;;13.48;98.79
41102;BME280;26845;50.190;19.178;2023-10-13T04:45:38;98682.27;;;13.46;98.84
41102;BME280;26845;50.190;19.178;2023-10-13T04:48:44;98684.13;;;13.48;98.87
41102;BME280;26845;50.190;19.178;2023-10-13T04:51:50;98688.45;;;13.51;98.95
41102;BME280;26845;50.190;19.178;2023-10-13T04:54:56;98691.70;;;13.52;98.97
41102;BME280;26845;50.190;19.178;2023-10-13T04:58:02;98696.65;;;13.52;99.05
41102;BME280;26845;50.190;19.178;2023-10-13T05:01:19;98701.46;;;13.55;99.06
41102;BME280;26845;50.190;19.178;2023-10-13T05:04:25;98706.92;;;13.55;98.95
41102;BME280;26845;50.190;19.178;2023-10-13T05:07:30;98707.30;;;13.57;99.10
41102;BME280;26845;50.190;19.178;2023-10-13T05:10:34;98707.87;;;13.64;99.48
41102;BME280;26845;50.190;19.178;2023-10-13T05:13:38;98710.52;;;13.70;99.54
41102;BME280;26845;50.190;19.178;2023-10-13T05:16:43;98716.66;;;13.72;99.56
41102;BME280;26845;50.190;19.178;2023-10-13T05:19:47;98718.34;;;13.75;99.39
41102;BME280;26845;50.190;19.178;2023-10-13T05:22:51;98722.13;;;13.78;99.65
41102;BME280;26845;50.190;19.178;2023-10-13T05:25:59;98718.02;;;13.83;99.62
41102;BME280;26845;50.190;19.178;2023-10-13T05:29:00;98718.65;;;13.85;99.63
41102;BME280;26845;50.190;19.178;2023-10-13T05:32:05;98723.04;;;13.89;99.75
41102;BME280;26845;50.190;19.178;2023-10-13T05:35:09;98724.20;;;13.92;99.70
41102;BME280;26845;50.190;19.178;2023-10-13T05:38:14;98728.09;;;13.93;99.76
41102;BME280;26845;50.190;19.178;2023-10-13T05:41:18;98728.78;;;13.97;99.76
41102;BME280;26845;50.190;19.178;2023-10-13T05:44:23;98724.58;;;14.00;99.76
41102;BME280;26845;50.190;19.178;2023-10-13T05:47:27;98726.52;;;14.03;99.87
41102;BME280;26845;50.190;19.178;2023-10-13T05:50:33;98727.55;;;14.05;99.87
41102;BME280;26845;50.190;19.178;2023-10-13T05:53:37;98734.27;;;14.07;99.87
41102;BME280;26845;50.190;19.178;2023-10-13T05:56:58;98736.88;;;14.07;99.80
41102;BME280;26845;50.190;19.178;2023-10-13T06:00:03;98740.02;;;14.05;99.95
41102;BME280;26845;50.190;19.178;2023-10-13T06:03:08;98740.02;;;14.07;100.00
41102;BME280;26845;50.190;19.178;2023-10-13T06:06:12;98741.35;;;14.11;100.00
41102;BME280;26845;50.190;19.178;2023-10-13T06:09:16;98740.96;;;14.15;100.00
41102;BME280;26845;50.190;19.178;2023-10-13T06:12:21;98740.55;;;14.19;99.99
41102;BME280;26845;50.190;19.178;2023-10-13T06:15:25;98738.17;;;14.24;100.00
41102;BME280;26845;50.190;19.178;2023-10-13T06:18:30;98743.44;;;14.28;100.00
41102;BME280;26845;50.190;19.178;2023-10-13T06:21:34;98743.08;;;14.32;100.00
41102;BME280;26845;50.190;19.178;2023-10-13T06:24:38;98742.52;;;14.36;100.00
41102;BME280;26845;50.190;19.178;2023-10-13T06:27:43;98740.73;;;14.41;100.00
41102;BME280;26845;50.190;19.178;2023-10-13T06:30:54;98746.30;;;14.46;100.00
41102;BME280;26845;50.190;19.178;2023-10-13T06:33:59;98745.30;;;14.52;100.00
41102;BME280;26845;50.190;19.178;2023-10-13T06:37:05;98745.49;;;14.60;100.00
41102;BME280;26845;50.190;19.178;2023-10-13T06:40:17;98747.54;;;14.68;100.00
41102;BME280;26845;50.190;19.178;2023-10-13T06:43:22;98752.77;;;14.73;100.00
41102;BME280;26845;50.190;19.178;2023-10-13T06:46:28;98751.45;;;14.79;100.00
41102;BME280;26845;50.190;19.178;2023-10-13T06:49:34;98753.69;;;14.84;100.00
41102;BME280;26845;50.190;19.178;2023-10-13T06:52:40;98755.25;;;14.92;100.00
41102;BME280;26845;50.190;19.178;2023-10-13T06:55:46;98756.30;;;14.97;100.00
41102;BME280;26845;50.190;19.178;2023-10-13T06:58:52;98758.84;;;15.06;100.00
41102;BME280;26845;50.190;19.178;2023-10-13T07:02:01;98762.42;;;15.15;100.00
41102;BME280;26845;50.190;19.178;2023-10-13T07:05:06;98760.56;;;15.24;100.00
41102;BME280;26845;50.190;19.178;2023-10-13T07:08:13;98766.20;;;15.30;100.00
41102;BME280;26845;50.190;19.178;2023-10-13T07:11:19;98770.48;;;15.36;100.00
41102;BME280;26845;50.190;19.178;2023-10-13T07:14:23;98771.02;;;15.40;100.00
41102;BME280;26845;50.190;19.178;2023-10-13T07:17:29;98768.09;;;15.48;100.00
41102;BME280;26845;50.190;19.178;2023-10-13T07:20:41;98763.02;;;15.60;100.00
41102;BME280;26845;50.190;19.178;2023-10-13T07:23:47;98760.87;;;15.67;100.00
41102;BME280;26845;50.190;19.178;2023-10-13T07:26:53;98764.45;;;15.74;100.00
41102;BME280;26845;50.190;19.178;2023-10-13T07:29:56;98768.46;;;15.87;100.00
41102;BME280;26845;50.190;19.178;2023-10-13T07:33:02;98770.48;;;15.98;100.00
41102;BME280;26845;50.190;19.178;2023-10-13T07:35:59;98770.25;;;16.06;100.00
41102;BME280;26845;50.190;19.178;2023-10-13T07:39:13;98772.41;;;16.11;100.00
41102;BME280;26845;50.190;19.178;2023-10-13T07:42:19;98774.52;;;16.07;100.00
41102;BME280;26845;50.190;19.178;2023-10-13T07:45:25;98771.51;;;16.00;100.00
41102;BME280;26845;50.190;19.178;2023-10-13T07:48:31;98767.48;;;16.02;100.00
41102;BME280;26845;50.190;19.178;2023-10-13T07:51:37;98765.12;;;16.14;100.00
41102;BME280;26845;50.190;19.178;2023-10-13T07:54:43;98763.39;;;16.16;100.00
41102;BME280;26845;50.190;19.178;2023-10-13T07:57:57;98763.39;;;16.21;100.00
41102;BME280;26845;50.190;19.178;2023-10-13T08:01:03;98763.52;;;16.28;100.00
41102;BME280;26845;50.190;19.178;2023-10-13T08:04:09;98766.43;;;16.34;100.00
41102;BME280;26845;50.190;19.178;2023-10-13T08:07:15;98767.65;;;16.37;100.00
41102;BME280;26845;50.190;19.178;2023-10-13T08:10:21;98762.67;;;16.40;100.00
41102;BME280;26845;50.190;19.178;2023-10-13T08:13:26;98762.80;;;16.44;100.00
41102;BME280;26845;50.190;19.178;2023-10-13T08:16:20;98765.41;;;16.46;100.00
41102;BME280;26845;50.190;19.178;2023-10-13T08:19:38;98766.30;;;16.49;100.00
41102;BME280;26845;50.190;19.178;2023-10-13T08:22:44;98760.95;;;16.53;100.00
41102;BME280;26845;50.190;19.178;2023-10-13T08:25:59;98761.40;;;16.57;100.00
41102;BME280;26845;50.190;19.178;2023-10-13T08:29:04;98760.84;;;16.71;100.00
41102;BME280;26845;50.190;19.178;2023-10-13T08:32:16;98767.45;;;16.87;100.00
41102;BME280;26845;50.190;19.178;2023-10-13T08:35:21;98769.40;;;16.96;100.00
41102;BME280;26845;50.190;19.178;2023-10-13T08:38:26;98772.51;;;16.96;100.00
41102;BME280;26845;50.190;19.178;2023-10-13T08:41:38;98771.16;;;17.03;100.00
41102;BME280;26845;50.190;19.178;2023-10-13T08:44:45;98768.12;;;17.12;100.00
41102;BME280;26845;50.190;19.178;2023-10-13T08:47:51;98769.14;;;17.20;100.00
41102;BME280;26845;50.190;19.178;2023-10-13T08:50:59;98769.45;;;17.36;100.00
41102;BME280;26845;50.190;19.178;2023-10-13T08:54:05;98763.81;;;17.51;100.00
41102;BME280;26845;50.190;19.178;2023-10-13T08:57:20;98760.75;;;17.61;99.95
41102;BME280;26845;50.190;19.178;2023-10-13T09:00:26;98759.41;;;17.79;100.00
41102;BME280;26845;50.190;19.178;2023-10-13T09:03:34;98754.31;;;18.01;100.00
41102;BME280;26845;50.190;19.178;2023-10-13T09:06:40;98757.94;;;18.27;100.00
41102;BME280;26845;50.190;19.178;2023-10-13T09:09:52;98750.52;;;18.65;99.56
41102;BME280;26845;50.190;19.178;2023-10-13T09:12:58;98743.95;;;19.04;97.98
41102;BME280;26845;50.190;19.178;2023-10-13T09:16:13;98738.62;;;19.17;97.80
41102;BME280;26845;50.190;19.178;2023-10-13T09:19:28;98741.64;;;19.52;93.65
41102;BME280;26845;50.190;19.178;2023-10-13T09:22:33;98741.84;;;19.80;96.44
41102;BME280;26845;50.190;19.178;2023-10-13T09:25:40;98744.18;;;20.39;96.78
41102;BME280;26845;50.190;19.178;2023-10-13T09:28:45;98739.96;;;20.99;95.82
41102;BME280;26845;50.190;19.178;2023-10-13T09:31:30;98739.73;;;21.50;95.94
41102;BME280;26845;50.190;19.178;2023-10-13T09:34:36;98739.05;;;21.90;93.27
41102;BME280;26845;50.190;19.178;2023-10-13T09:37:42;98744.75;;;21.97;91.59
41102;BME280;26845;50.190;19.178;2023-10-13T09:40:47;98748.73;;;22.01;90.33
41102;BME280;26845;50.190;19.178;2023-10-13T09:44:11;98740.66;;;22.29;89.09
41102;BME280;26845;50.190;19.178;2023-10-13T09:47:20;98737.56;;;22.42;89.31
41102;BME280;26845;50.190;19.178;2023-10-13T09:50:23;98736.55;;;22.73;89.16
41102;BME280;26845;50.190;19.178;2023-10-13T09:53:30;98739.43;;;22.90;85.38
41102;BME280;26845;50.190;19.178;2023-10-13T09:56:37;98740.29;;;22.78;82.13
41102;BME280;26845;50.190;19.178;2023-10-13T09:59:45;98743.38;;;22.58;83.23
41102;BME280;26845;50.190;19.178;2023-10-13T10:02:47;98743.12;;;22.79;84.34
41102;BME280;26845;50.190;19.178;2023-10-13T10:06:00;98737.52;;;22.98;83.66
41102;BME280;26845;50.190;19.178;2023-10-13T10:09:09;98740.33;;;23.21;82.47
41102;BME280;26845;50.190;19.178;2023-10-13T10:12:38;98738.06;;;23.21;80.02
41102;BME280;26845;50.190;19.178;2023-10-13T10:15:41;98737.89;;;23.15;78.84
41102;BME280;26845;50.190;19.178;2023-10-13T10:18:44;98725.47;;;23.02;79.73
41102;BME280;26845;50.190;19.178;2023-10-13T10:21:50;98726.85;;;23.06;77.66
41102;BME280;26845;50.190;19.178;2023-10-13T10:25:05;98725.45;;;22.94;77.37
41102;BME280;26845;50.190;19.178;2023-10-13T10:28:10;98723.19;;;22.47;77.67
41102;BME280;26845;50.190;19.178;2023-10-13T10:31:16;98724.52;;;21.94;76.34
41102;BME280;26845;50.190;19.178;2023-10-13T10:34:17;98718.70;;;21.48;76.19
41102;BME280;26845;50.190;19.178;2023-10-13T10:37:22;98709.15;;;21.57;77.44
41102;BME280;26845;50.190;19.178;2023-10-13T10:40:34;98701.16;;;21.45;77.33
41102;BME280;26845;50.190;19.178;2023-10-13T10:43:42;98696.75;;;21.61;76.89
41102;BME280;26845;50.190;19.178;2023-10-13T10:46:48;98688.41;;;21.59;77.23
41102;BME280;26845;50.190;19.178;2023-10-13T10:49:54;98686.50;;;21.91;76.47
41102;BME280;26845;50.190;19.178;2023-10-13T10:53:05;98684.63;;;21.86;75.17
41102;BME280;26845;50.190;19.178;2023-10-13T10:56:23;98681.44;;;21.80;76.20
41102;BME280;26845;50.190;19.178;2023-10-13T10:59:12;98684.57;;;21.62;74.74
41102;BME280;26845;50.190;19.178;2023-10-13T11:02:17;98683.52;;;21.41;75.56
41102;BME280;26845;50.190;19.178;2023-10-13T11:05:23;98677.52;;;21.32;75.77
41102;BME280;26845;50.190;19.178;2023-10-13T11:08:28;98679.60;;;21.46;75.18
41102;BME280;26845;50.190;19.178;2023-10-13T11:11:34;98673.81;;;21.75;76.05
41102;BME280;26845;50.190;19.178;2023-10-13T11:14:40;98682.73;;;22.23;73.80
41102;BME280;26845;50.190;19.178;2023-10-13T11:17:47;98669.04;;;22.18;70.61
41102;BME280;26845;50.190;19.178;2023-10-13T11:20:55;98676.88;;;22.02;70.13
41102;BME280;26845;50.190;19.178;2023-10-13T11:23:40;98674.38;;;22.05;71.59
41102;BME280;26845;50.190;19.178;2023-10-13T11:26:57;98670.90;;;22.19;71.76
41102;BME280;26845;50.190;19.178;2023-10-13T11:30:00;98665.58;;;22.38;70.73
41102;BME280;26845;50.190;19.178;2023-10-13T11:33:07;98665.89;;;22.39;70.34
41102;BME280;26845;50.190;19.178;2023-10-13T11:36:14;98660.88;;;22.42;71.16
41102;BME280;26845;50.190;19.178;2023-10-13T11:39:01;98658.09;;;22.57;70.67
41102;BME280;26845;50.190;19.178;2023-10-13T11:41:51;98657.36;;;22.59;69.43
41102;BME280;26845;50.190;19.178;2023-10-13T11:44:57;98656.08;;;22.33;69.08
41102;BME280;26845;50.190;19.178;2023-10-13T11:48:15;98661.41;;;21.99;70.84
41102;BME280;26845;50.190;19.178;2023-10-13T11:51:23;98661.95;;;21.79;71.08
41102;BME280;26845;50.190;19.178;2023-10-13T11:54:14;98654.73;;;21.61;71.01
41102;BME280;26845;50.190;19.178;2023-10-13T11:57:01;98647.23;;;21.64;72.78
41102;BME280;26845;50.190;19.178;2023-10-13T12:00:08;98642.05;;;22.27;73.04
41102;BME280;26845;50.190;19.178;2023-10-13T12:03:12;98642.80;;;22.65;68.94
41102;BME280;26845;50.190;19.178;2023-10-13T12:06:16;98642.39;;;22.58;68.23
41102;BME280;26845;50.190;19.178;2023-10-13T12:09:02;98646.39;;;22.37;68.31
41102;BME280;26845;50.190;19.178;2023-10-13T12:11:48;98648.19;;;22.22;69.95
41102;BME280;26845;50.190;19.178;2023-10-13T12:14:53;98640.59;;;22.42;69.46
41102;BME280;26845;50.190;19.178;2023-10-13T12:17:52;98641.71;;;22.42;68.16
41102;BME280;26845;50.190;19.178;2023-10-13T12:20:57;98643.02;;;22.50;68.92
41102;BME280;26845;50.190;19.178;2023-10-13T12:23:52;98637.95;;;22.62;69.28
41102;BME280;26845;50.190;19.178;2023-10-13T12:26:58;98639.23;;;22.54;69.61
41102;BME280;26845;50.190;19.178;2023-10-13T12:30:08;98635.55;;;22.38;69.49
41102;BME280;26845;50.190;19.178;2023-10-13T12:33:13;98634.98;;;22.37;69.83
41102;BME280;26845;50.190;19.178;2023-10-13T12:36:06;98632.71;;;22.32;69.21
41102;BME280;26845;50.190;19.178;2023-10-13T12:38:56;98632.73;;;22.43;70.54
41102;BME280;26845;50.190;19.178;2023-10-13T12:42:00;98622.88;;;22.53;70.10
41102;BME280;26845;50.190;19.178;2023-10-13T12:45:15;98621.95;;;22.74;70.75
41102;BME280;26845;50.190;19.178;2023-10-13T12:48:19;98621.22;;;22.73;69.83
41102;BME280;26845;50.190;19.178;2023-10-13T12:51:04;98622.43;;;22.70;69.94
41102;BME280;26845;50.190;19.178;2023-10-13T12:54:16;98617.52;;;22.93;69.90
41102;BME280;26845;50.190;19.178;2023-10-13T12:57:22;98609.13;;;23.08;69.71
41102;BME280;26845;50.190;19.178;2023-10-13T13:00:12;98608.45;;;23.21;68.77
41102;BME280;26845;50.190;19.178;2023-10-13T13:02:59;98604.88;;;23.31;69.47
41102;BME280;26845;50.190;19.178;2023-10-13T13:06:05;98603.42;;;23.29;66.96
41102;BME280;26845;50.190;19.178;2023-10-13T13:08:54;98597.90;;;23.18;68.55
41102;BME280;26845;50.190;19.178;2023-10-13T13:11:59;98595.02;;;23.16;67.50
41102;BME280;26845;50.190;19.178;2023-10-13T13:14:35;98596.46;;;23.23;67.90
41102;BME280;26845;50.190;19.178;2023-10-13T13:17:21;98589.59;;;23.21;67.19
41102;BME280;26845;50.190;19.178;2023-10-13T13:19:47;98596.24;;;23.06;67.30
41102;BME280;26845;50.190;19.178;2023-10-13T13:22:59;98588.62;;;22.92;67.35
41102;BME280;26845;50.190;19.178;2023-10-13T13:26:05;98582.46;;;22.87;67.00
41102;BME280;26845;50.190;19.178;2023-10-13T13:29:10;98592.80;;;22.63;67.90
41102;BME280;26845;50.190;19.178;2023-10-13T13:32:16;98590.33;;;22.35;68.17
41102;BME280;26845;50.190;19.178;2023-10-13T13:35:21;98585.98;;;22.02;68.60
41102;BME280;26845;50.190;19.178;2023-10-13T13:38:14;98577.79;;;21.91;69.19
41102;BME280;26845;50.190;19.178;2023-10-13T13:41:20;98574.73;;;21.94;69.74
41102;BME280;26845;50.190;19.178;2023-10-13T13:44:25;98568.20;;;21.98;69.96
41102;BME280;26845;50.190;19.178;2023-10-13T13:47:15;98563.34;;;21.93;70.28
41102;BME280;26845;50.190;19.178;2023-10-13T13:50:01;98557.52;;;21.97;70.51
41102;BME280;26845;50.190;19.178;2023-10-13T13:52:55;98555.39;;;22.09;71.02
41102;BME280;26845;50.190;19.178;2023-10-13T13:55:45;98560.65;;;22.43;70.86
41102;BME280;26845;50.190;19.178;2023-10-13T13:58:51;98560.34;;;22.62;70.71
41102;BME280;26845;50.190;19.178;2023-10-13T14:01:35;98559.30;;;22.80;69.96
41102;BME280;26845;50.190;19.178;2023-10-13T14:04:40;98557.84;;;22.91;69.96
41102;BME280;26845;50.190;19.178;2023-10-13T14:07:46;98564.64;;;22.91;69.80
41102;BME280;26845;50.190;19.178;2023-10-13T14:10:48;98563.75;;;22.76;69.70
41102;BME280;26845;50.190;19.178;2023-10-13T14:13:57;98560.60;;;22.71;69.32
41102;BME280;26845;50.190;19.178;2023-10-13T14:16:44;98561.79;;;22.42;69.44
41102;BME280;26845;50.190;19.178;2023-10-13T14:19:33;98559.75;;;22.11;69.24
41102;BME280;26845;50.190;19.178;2023-10-13T14:22:19;98559.52;;;21.90;69.93
41102;BME280;26845;50.190;19.178;2023-10-13T14:25:08;98554.00;;;21.82;70.31
41102;BME280;26845;50.190;19.178;2023-10-13T14:28:13;98550.30;;;21.89;70.58
41102;BME280;26845;50.190;19.178;2023-10-13T14:31:04;98548.27;;;21.89;70.61
41102;BME280;26845;50.190;19.178;2023-10-13T14:34:10;98548.61;;;21.67;70.71
41102;BME280;26845;50.190;19.178;2023-10-13T14:37:15;98551.31;;;21.60;71.52
41102;BME280;26845;50.190;19.178;2023-10-13T14:40:02;98549.77;;;21.54;71.08
41102;BME280;26845;50.190;19.178;2023-10-13T14:43:04;98544.11;;;21.39;71.47
41102;BME280;26845;50.190;19.178;2023-10-13T14:45:30;98545.61;;;21.26;71.73
41102;BME280;26845;50.190;19.178;2023-10-13T14:48:19;98545.04;;;21.11;71.99
41102;BME280;26845;50.190;19.178;2023-10-13T14:50:46;98543.34;;;20.99;72.34
41102;BME280;26845;50.190;19.178;2023-10-13T14:53:35;98543.80;;;20.84;72.50
41102;BME280;26845;50.190;19.178;2023-10-13T14:56:02;98546.56;;;20.77;72.95
41102;BME280;26845;50.190;19.178;2023-10-13T14:58:39;98544.91;;;20.71;73.10
41102;BME280;26845;50.190;19.178;2023-10-13T15:01:44;98543.42;;;20.66;73.41
41102;BME280;26845;50.190;19.178;2023-10-13T15:04:50;98536.69;;;20.54;73.77
41102;BME280;26845;50.190;19.178;2023-10-13T15:07:56;98536.89;;;20.43;73.88
41102;BME280;26845;50.190;19.178;2023-10-13T15:11:08;98536.73;;;20.41;74.12
41102;BME280;26845;50.190;19.178;2023-10-13T15:14:14;98536.54;;;20.40;74.25
41102;BME280;26845;50.190;19.178;2023-10-13T15:17:19;98536.75;;;20.35;74.78
41102;BME280;26845;50.190;19.178;2023-10-13T15:20:25;98535.02;;;20.30;74.93
41102;BME280;26845;50.190;19.178;2023-10-13T15:23:31;98531.42;;;20.27;75.11
41102;BME280;26845;50.190;19.178;2023-10-13T15:26:36;98526.45;;;20.22;75.40
41102;BME280;26845;50.190;19.178;2023-10-13T15:29:42;98519.63;;;20.16;75.86
41102;BME280;26845;50.190;19.178;2023-10-13T15:32:48;98515.55;;;20.11;76.04
41102;BME280;26845;50.190;19.178;2023-10-13T15:35:54;98510.29;;;20.09;76.46
41102;BME280;26845;50.190;19.178;2023-10-13T15:39:02;98507.05;;;20.07;76.43
41102;BME280;26845;50.190;19.178;2023-10-13T15:42:14;98511.56;;;20.00;76.68
41102;BME280;26845;50.190;19.178;2023-10-13T15:45:20;98506.27;;;19.93;76.69
41102;BME280;26845;50.190;19.178;2023-10-13T15:48:26;98503.43;;;19.94;77.24
41102;BME280;26845;50.190;19.178;2023-10-13T15:51:32;98508.30;;;19.95;77.42
41102;BME280;26845;50.190;19.178;2023-10-13T15:54:38;98509.69;;;19.96;77.64
41102;BME280;26845;50.190;19.178;2023-10-13T15:57:44;98511.05;;;19.89;77.51
41102;BME280;26845;50.190;19.178;2023-10-13T16:00:52;98512.42;;;19.82;77.89